sensor_id;sensor_type;location;lat;lon;timestamp;P1;durP1;ratioP1;P2;durP2;ratioP2
4674;SDS011;2351;50.812;12.872;2022-12-18T00:02:11;25.70;;;13.57;;
4674;SDS011;2351;50.812;12.872;2022-12-18T00:04:42;22.67;;;12.15;;
4674;SDS011;2351;50.812;12.872;2022-12-18T00:07:15;30.40;;;11.73;;
4674;SDS011;2351;50.812;12.872;2022-12-18T00:09:47;28.05;;;13.48;;
4674;SDS011;2351;50.812;12.872;2022-12-18T00:12:19;25.17;;;12.55;;
4674;SDS011;2351;50.812;12.872;2022-12-18T00:14:50;27.27;;;11.95;;
4674;SDS011;2351;50.812;12.872;2022-12-18T00:17:22;28.23;;;11.15;;
4674;SDS011;2351;50.812;12.872;2022-12-18T00:19:54;21.73;;;9.93;;
4674;SDS011;2351;50.812;12.872;2022-12-18T00:22:27;21.60;;;10.40;;
4674;SDS011;2351;50.812;12.872;2022-12-18T00:24:59;25.08;;;10.90;;
4674;SDS011;2351;50.812;12.872;2022-12-18T00:27:30;23.08;;;10.20;;
4674;SDS011;2351;50.812;12.872;2022-12-18T00:30:02;29.73;;;11.25;;
4674;SDS011;2351;50.812;12.872;2022-12-18T00:32:35;20.02;;;10.57;;
4674;SDS011;2351;50.812;12.872;2022-12-18T00:35:07;23.10;;;11.73;;
4674;SDS011;2351;50.812;12.872;2022-12-18T00:37:40;21.15;;;10.18;;
4674;SDS011;2351;50.812;12.872;2022-12-18T00:40:12;19.40;;;9.85;;
4674;SDS011;2351;50.812;12.872;2022-12-18T00:42:44;17.45;;;9.25;;
4674;SDS011;2351;50.812;12.872;2022-12-18T00:45:27;19.05;;;10.30;;
4674;SDS011;2351;50.812;12.872;2022-12-18T00:48:00;24.77;;;12.57;;
4674;SDS011;2351;50.812;12.872;2022-12-18T00:50:31;23.67;;;10.75;;
4674;SDS011;2351;50.812;12.872;2022-12-18T00:53:04;21.90;;;10.27;;
4674;SDS011;2351;50.812;12.872;2022-12-18T00:55:36;22.67;;;9.60;;
4674;SDS011;2351;50.812;12.872;2022-12-18T00:58:10;19.67;;;9.32;;
4674;SDS011;2351;50.812;12.872;2022-12-18T01:00:43;20.38;;;9.43;;
4674;SDS011;2351;50.812;12.872;2022-12-18T01:03:14;28.02;;;9.88;;
4674;SDS011;2351;50.812;12.872;2022-12-18T01:05:46;15.95;;;8.65;;
4674;SDS011;2351;50.812;12.872;2022-12-18T01:08:19;22.20;;;9.38;;
4674;SDS011;2351;50.812;12.872;2022-12-18T01:10:51;16.10;;;8.38;;
4674;SDS011;2351;50.812;12.872;2022-12-18T01:13:22;20.02;;;8.98;;
4674;SDS011;2351;50.812;12.872;2022-12-18T01:15:54;21.50;;;9.82;;
4674;SDS011;2351;50.812;12.872;2022-12-18T01:18:26;28.35;;;11.90;;
4674;SDS011;2351;50.812;12.872;2022-12-18T01:20:57;36.45;;;15.43;;
4674;SDS011;2351;50.812;12.872;2022-12-18T01:23:31;25.77;;;13.27;;
4674;SDS011;2351;50.812;12.872;2022-12-18T01:26:06;31.20;;;12.38;;
4674;SDS011;2351;50.812;12.872;2022-12-18T01:28:38;30.42;;;12.48;;
4674;SDS011;2351;50.812;12.872;2022-12-18T01:31:15;31.23;;;12.70;;
4674;SDS011;2351;50.812;12.872;2022-12-18T01:33:49;25.40;;;12.70;;
4674;SDS011;2351;50.812;12.872;2022-12-18T01:36:22;31.27;;;12.07;;
4674;SDS011;2351;50.812;12.872;2022-12-18T01:38:56;24.20;;;9.40;;
4674;SDS011;2351;50.812;12.872;2022-12-18T01:41:31;17.75;;;9.07;;
4674;SDS011;2351;50.812;12.872;2022-12-18T01:47:26;21.27;;;10.65;;
4674;SDS011;2351;50.812;12.872;2022-12-18T01:50:02;16.65;;;9.00;;
4674;SDS011;2351;50.812;12.872;2022-12-18T01:52:37;20.00;;;9.60;;
4674;SDS011;2351;50.812;12.872;2022-12-18T01:55:13;16.95;;;8.75;;
4674;SDS011;2351;50.812;12.872;2022-12-18T01:57:47;21.65;;;9.45;;
4674;SDS011;2351;50.812;12.872;2022-12-18T02:00:22;30.17;;;8.98;;
4674;SDS011;2351;50.812;12.872;2022-12-18T02:02:55;19.67;;;9.13;;
4674;SDS011;2351;50.812;12.872;2022-12-18T02:05:29;13.85;;;7.65;;
4674;SDS011;2351;50.812;12.872;2022-12-18T02:08:10;15.38;;;7.57;;
4674;SDS011;2351;50.812;12.872;2022-12-18T02:10:53;22.85;;;8.25;;
4674;SDS011;2351;50.812;12.872;2022-12-18T02:13:32;18.17;;;8.02;;
4674;SDS011;2351;50.812;12.872;2022-12-18T02:16:13;13.68;;;7.63;;
4674;SDS011;2351;50.812;12.872;2022-12-18T02:18:50;16.20;;;6.57;;
4674;SDS011;2351;50.812;12.872;2022-12-18T02:21:30;10.50;;;6.20;;
4674;SDS011;2351;50.812;12.872;2022-12-18T02:24:14;11.38;;;6.72;;
4674;SDS011;2351;50.812;12.872;2022-12-18T02:26:56;10.10;;;6.57;;
4674;SDS011;2351;50.812;12.872;2022-12-18T02:29:32;9.07;;;5.70;;
4674;SDS011;2351;50.812;12.872;2022-12-18T02:32:08;13.20;;;7.00;;
4674;SDS011;2351;50.812;12.872;2022-12-18T02:34:45;18.95;;;6.75;;
4674;SDS011;2351;50.812;12.872;2022-12-18T02:37:19;13.20;;;7.30;;
4674;SDS011;2351;50.812;12.872;2022-12-18T02:39:52;18.05;;;8.55;;
4674;SDS011;2351;50.812;12.872;2022-12-18T02:42:27;15.85;;;7.45;;
4674;SDS011;2351;50.812;12.872;2022-12-18T02:44:59;12.65;;;6.70;;
4674;SDS011;2351;50.812;12.872;2022-12-18T02:47:32;21.73;;;8.05;;
4674;SDS011;2351;50.812;12.872;2022-12-18T02:50:08;15.77;;;7.50;;
4674;SDS011;2351;50.812;12.872;2022-12-18T02:52:50;12.50;;;6.05;;
4674;SDS011;2351;50.812;12.872;2022-12-18T02:55:33;15.80;;;7.05;;
4674;SDS011;2351;50.812;12.872;2022-12-18T02:58:20;13.77;;;7.10;;
4674;SDS011;2351;50.812;12.872;2022-12-18T03:01:00;12.30;;;6.90;;
4674;SDS011;2351;50.812;12.872;2022-12-18T03:03:38;9.65;;;5.47;;
4674;SDS011;2351;50.812;12.872;2022-12-18T03:06:14;10.98;;;6.47;;
4674;SDS011;2351;50.812;12.872;2022-12-18T03:08:54;12.40;;;7.10;;
4674;SDS011;2351;50.812;12.872;2022-12-18T03:11:30;10.60;;;6.10;;
4674;SDS011;2351;50.812;12.872;2022-12-18T03:14:23;11.35;;;5.72;;
4674;SDS011;2351;50.812;12.872;2022-12-18T03:16:57;8.68;;;4.38;;
4674;SDS011;2351;50.812;12.872;2022-12-18T03:19:32;13.65;;;4.45;;
4674;SDS011;2351;50.812;12.872;2022-12-18T03:22:04;8.23;;;4.07;;
4674;SDS011;2351;50.812;12.872;2022-12-18T03:24:38;10.05;;;6.05;;
4674;SDS011;2351;50.812;12.872;2022-12-18T03:27:11;9.32;;;4.85;;
4674;SDS011;2351;50.812;12.872;2022-12-18T03:29:47;11.23;;;4.10;;
4674;SDS011;2351;50.812;12.872;2022-12-18T03:32:23;7.10;;;3.83;;
4674;SDS011;2351;50.812;12.872;2022-12-18T03:35:01;15.30;;;5.13;;
4674;SDS011;2351;50.812;12.872;2022-12-18T03:37:35;9.18;;;4.63;;
4674;SDS011;2351;50.812;12.872;2022-12-18T03:40:08;6.97;;;3.95;;
4674;SDS011;2351;50.812;12.872;2022-12-18T03:42:42;6.25;;;4.35;;
4674;SDS011;2351;50.812;12.872;2022-12-18T03:45:22;12.45;;;5.10;;
4674;SDS011;2351;50.812;12.872;2022-12-18T03:48:07;6.82;;;4.47;;
4674;SDS011;2351;50.812;12.872;2022-12-18T03:50:48;5.97;;;3.88;;
4674;SDS011;2351;50.812;12.872;2022-12-18T03:53:27;9.73;;;4.30;;
4674;SDS011;2351;50.812;12.872;2022-12-18T03:56:06;5.78;;;3.85;;
4674;SDS011;2351;50.812;12.872;2022-12-18T03:58:40;9.13;;;4.32;;
4674;SDS011;2351;50.812;12.872;2022-12-18T04:01:15;10.32;;;5.10;;
4674;SDS011;2351;50.812;12.872;2022-12-18T04:03:49;8.38;;;4.35;;
4674;SDS011;2351;50.812;12.872;2022-12-18T04:06:22;8.05;;;5.13;;
4674;SDS011;2351;50.812;12.872;2022-12-18T04:08:54;8.90;;;4.35;;
4674;SDS011;2351;50.812;12.872;2022-12-18T04:11:27;8.95;;;5.35;;
4674;SDS011;2351;50.812;12.872;2022-12-18T04:13:59;7.25;;;4.63;;
4674;SDS011;2351;50.812;12.872;2022-12-18T04:16:32;7.72;;;4.20;;
4674;SDS011;2351;50.812;12.872;2022-12-18T04:19:04;7.22;;;4.53;;
4674;SDS011;2351;50.812;12.872;2022-12-18T04:21:36;6.85;;;3.60;;
4674;SDS011;2351;50.812;12.872;2022-12-18T04:24:08;6.47;;;3.10;;
4674;SDS011;2351;50.812;12.872;2022-12-18T04:26:39;5.35;;;3.28;;
4674;SDS011;2351;50.812;12.872;2022-12-18T04:29:11;8.48;;;3.55;;
4674;SDS011;2351;50.812;12.872;2022-12-18T04:31:44;11.43;;;4.60;;
4674;SDS011;2351;50.812;12.872;2022-12-18T04:34:16;8.35;;;4.80;;
4674;SDS011;2351;50.812;12.872;2022-12-18T04:36:47;10.70;;;4.28;;
4674;SDS011;2351;50.812;12.872;2022-12-18T04:39:19;7.68;;;3.63;;
4674;SDS011;2351;50.812;12.872;2022-12-18T04:41:51;7.97;;;3.97;;
4674;SDS011;2351;50.812;12.872;2022-12-18T04:44:23;7.45;;;4.05;;
4674;SDS011;2351;50.812;12.872;2022-12-18T04:46:56;7.35;;;4.03;;
4674;SDS011;2351;50.812;12.872;2022-12-18T04:49:27;8.02;;;4.43;;
4674;SDS011;2351;50.812;12.872;2022-12-18T04:51:59;5.95;;;4.30;;
4674;SDS011;2351;50.812;12.872;2022-12-18T04:54:31;8.93;;;3.70;;
4674;SDS011;2351;50.812;12.872;2022-12-18T04:57:02;6.07;;;4.18;;
4674;SDS011;2351;50.812;12.872;2022-12-18T04:59:34;6.13;;;3.85;;
4674;SDS011;2351;50.812;12.872;2022-12-18T05:02:07;11.35;;;4.15;;
4674;SDS011;2351;50.812;12.872;2022-12-18T05:04:39;4.13;;;3.30;;
4674;SDS011;2351;50.812;12.872;2022-12-18T05:07:10;5.35;;;3.50;;
4674;SDS011;2351;50.812;12.872;2022-12-18T05:09:42;4.85;;;3.47;;
4674;SDS011;2351;50.812;12.872;2022-12-18T05:12:14;5.53;;;3.30;;
4674;SDS011;2351;50.812;12.872;2022-12-18T05:14:45;7.03;;;4.10;;
4674;SDS011;2351;50.812;12.872;2022-12-18T05:17:18;7.50;;;4.80;;
4674;SDS011;2351;50.812;12.872;2022-12-18T05:19:50;9.30;;;3.50;;
4674;SDS011;2351;50.812;12.872;2022-12-18T05:22:22;6.55;;;3.75;;
4674;SDS011;2351;50.812;12.872;2022-12-18T05:24:54;4.68;;;3.45;;
4674;SDS011;2351;50.812;12.872;2022-12-18T05:27:26;6.22;;;3.35;;
4674;SDS011;2351;50.812;12.872;2022-12-18T05:29:58;6.93;;;3.60;;
4674;SDS011;2351;50.812;12.872;2022-12-18T05:32:31;3.80;;;3.17;;
4674;SDS011;2351;50.812;12.872;2022-12-18T05:35:03;6.82;;;3.25;;
4674;SDS011;2351;50.812;12.872;2022-12-18T05:37:35;6.22;;;3.20;;
4674;SDS011;2351;50.812;12.872;2022-12-18T05:40:08;6.30;;;3.03;;
4674;SDS011;2351;50.812;12.872;2022-12-18T05:42:40;4.18;;;3.08;;
4674;SDS011;2351;50.812;12.872;2022-12-18T05:45:12;2.67;;;2.42;;
4674;SDS011;2351;50.812;12.872;2022-12-18T05:47:45;3.40;;;2.47;;
4674;SDS011;2351;50.812;12.872;2022-12-18T05:50:17;7.45;;;4.38;;
4674;SDS011;2351;50.812;12.872;2022-12-18T05:52:49;7.55;;;2.67;;
4674;SDS011;2351;50.812;12.872;2022-12-18T05:55:20;4.47;;;2.88;;
4674;SDS011;2351;50.812;12.872;2022-12-18T05:57:52;5.38;;;3.08;;
4674;SDS011;2351;50.812;12.872;2022-12-18T06:00:24;4.18;;;2.80;;
4674;SDS011;2351;50.812;12.872;2022-12-18T06:02:57;4.45;;;2.92;;
4674;SDS011;2351;50.812;12.872;2022-12-18T06:05:29;5.60;;;3.00;;
4674;SDS011;2351;50.812;12.872;2022-12-18T06:08:05;4.43;;;2.83;;
4674;SDS011;2351;50.812;12.872;2022-12-18T06:10:37;5.70;;;3.25;;
4674;SDS011;2351;50.812;12.872;2022-12-18T06:13:09;10.63;;;3.22;;
4674;SDS011;2351;50.812;12.872;2022-12-18T06:15:41;6.75;;;3.08;;
4674;SDS011;2351;50.812;12.872;2022-12-18T06:18:14;4.05;;;2.78;;
4674;SDS011;2351;50.812;12.872;2022-12-18T06:20:53;3.60;;;2.65;;
4674;SDS011;2351;50.812;12.872;2022-12-18T06:23:26;7.35;;;3.13;;
4674;SDS011;2351;50.812;12.872;2022-12-18T06:25:58;7.57;;;2.95;;
4674;SDS011;2351;50.812;12.872;2022-12-18T06:28:29;6.47;;;3.50;;
4674;SDS011;2351;50.812;12.872;2022-12-18T06:31:02;7.15;;;3.58;;
4674;SDS011;2351;50.812;12.872;2022-12-18T06:33:36;6.97;;;3.00;;
4674;SDS011;2351;50.812;12.872;2022-12-18T06:36:08;6.57;;;3.10;;
4674;SDS011;2351;50.812;12.872;2022-12-18T06:38:42;5.88;;;3.90;;
4674;SDS011;2351;50.812;12.872;2022-12-18T06:41:15;5.65;;;3.35;;
4674;SDS011;2351;50.812;12.872;2022-12-18T06:43:49;7.25;;;4.05;;
4674;SDS011;2351;50.812;12.872;2022-12-18T06:46:21;4.93;;;3.15;;
4674;SDS011;2351;50.812;12.872;2022-12-18T06:48:54;4.45;;;2.58;;
4674;SDS011;2351;50.812;12.872;2022-12-18T06:51:25;5.10;;;2.83;;
4674;SDS011;2351;50.812;12.872;2022-12-18T06:53:57;7.18;;;3.50;;
4674;SDS011;2351;50.812;12.872;2022-12-18T06:56:29;5.85;;;2.83;;
4674;SDS011;2351;50.812;12.872;2022-12-18T06:59:02;7.07;;;3.72;;
4674;SDS011;2351;50.812;12.872;2022-12-18T07:01:33;9.20;;;3.35;;
4674;SDS011;2351;50.812;12.872;2022-12-18T07:04:06;8.90;;;3.65;;
4674;SDS011;2351;50.812;12.872;2022-12-18T07:06:38;5.55;;;3.00;;
4674;SDS011;2351;50.812;12.872;2022-12-18T07:09:10;5.25;;;3.72;;
4674;SDS011;2351;50.812;12.872;2022-12-18T07:11:41;4.18;;;2.85;;
4674;SDS011;2351;50.812;12.872;2022-12-18T07:14:13;5.78;;;3.83;;
4674;SDS011;2351;50.812;12.872;2022-12-18T07:16:45;3.25;;;2.95;;
4674;SDS011;2351;50.812;12.872;2022-12-18T07:19:18;5.43;;;3.33;;
4674;SDS011;2351;50.812;12.872;2022-12-18T07:21:49;5.97;;;3.20;;
4674;SDS011;2351;50.812;12.872;2022-12-18T07:24:21;3.58;;;2.63;;
4674;SDS011;2351;50.812;12.872;2022-12-18T07:26:53;5.85;;;3.75;;
4674;SDS011;2351;50.812;12.872;2022-12-18T07:29:24;6.22;;;3.70;;
4674;SDS011;2351;50.812;12.872;2022-12-18T07:31:56;6.38;;;3.65;;
4674;SDS011;2351;50.812;12.872;2022-12-18T07:34:29;5.78;;;3.63;;
4674;SDS011;2351;50.812;12.872;2022-12-18T07:37:01;9.23;;;3.67;;
4674;SDS011;2351;50.812;12.872;2022-12-18T07:39:33;3.78;;;3.00;;
4674;SDS011;2351;50.812;12.872;2022-12-18T07:42:07;3.75;;;2.85;;
4674;SDS011;2351;50.812;12.872;2022-12-18T07:44:53;6.00;;;3.35;;
4674;SDS011;2351;50.812;12.872;2022-12-18T07:47:24;14.27;;;4.05;;
4674;SDS011;2351;50.812;12.872;2022-12-18T07:49:58;6.63;;;3.20;;
4674;SDS011;2351;50.812;12.872;2022-12-18T07:52:29;4.30;;;2.55;;
4674;SDS011;2351;50.812;12.872;2022-12-18T07:55:01;5.00;;;3.40;;
4674;SDS011;2351;50.812;12.872;2022-12-18T07:57:33;2.92;;;2.72;;
4674;SDS011;2351;50.812;12.872;2022-12-18T08:00:05;7.10;;;3.78;;
4674;SDS011;2351;50.812;12.872;2022-12-18T08:02:38;6.82;;;4.35;;
4674;SDS011;2351;50.812;12.872;2022-12-18T08:05:11;6.90;;;4.07;;
4674;SDS011;2351;50.812;12.872;2022-12-18T08:07:43;7.22;;;4.43;;
4674;SDS011;2351;50.812;12.872;2022-12-18T08:10:15;6.55;;;3.95;;
4674;SDS011;2351;50.812;12.872;2022-12-18T08:12:48;6.25;;;3.75;;
4674;SDS011;2351;50.812;12.872;2022-12-18T08:15:20;8.45;;;4.70;;
4674;SDS011;2351;50.812;12.872;2022-12-18T08:17:52;6.28;;;3.83;;
4674;SDS011;2351;50.812;12.872;2022-12-18T08:20:28;6.40;;;4.15;;
4674;SDS011;2351;50.812;12.872;2022-12-18T08:23:00;7.57;;;3.60;;
4674;SDS011;2351;50.812;12.872;2022-12-18T08:25:32;5.00;;;3.70;;
4674;SDS011;2351;50.812;12.872;2022-12-18T08:28:05;6.90;;;4.45;;
4674;SDS011;2351;50.812;12.872;2022-12-18T08:30:37;6.00;;;4.65;;
4674;SDS011;2351;50.812;12.872;2022-12-18T08:33:08;5.60;;;4.10;;
4674;SDS011;2351;50.812;12.872;2022-12-18T08:35:41;10.25;;;5.60;;
4674;SDS011;2351;50.812;12.872;2022-12-18T08:38:13;21.05;;;9.85;;
4674;SDS011;2351;50.812;12.872;2022-12-18T08:40:45;19.80;;;8.10;;
4674;SDS011;2351;50.812;12.872;2022-12-18T08:43:16;10.75;;;6.20;;
4674;SDS011;2351;50.812;12.872;2022-12-18T08:46:06;8.50;;;5.40;;
4674;SDS011;2351;50.812;12.872;2022-12-18T08:48:37;13.00;;;6.35;;
4674;SDS011;2351;50.812;12.872;2022-12-18T08:51:11;10.15;;;4.82;;
4674;SDS011;2351;50.812;12.872;2022-12-18T08:53:42;6.95;;;4.18;;
4674;SDS011;2351;50.812;12.872;2022-12-18T08:56:15;14.60;;;5.80;;
4674;SDS011;2351;50.812;12.872;2022-12-18T08:58:47;12.70;;;7.25;;
4674;SDS011;2351;50.812;12.872;2022-12-18T09:01:22;10.48;;;5.43;;
4674;SDS011;2351;50.812;12.872;2022-12-18T09:03:55;8.77;;;6.00;;
4674;SDS011;2351;50.812;12.872;2022-12-18T09:06:28;8.98;;;5.63;;
4674;SDS011;2351;50.812;12.872;2022-12-18T09:08:59;14.85;;;5.70;;
4674;SDS011;2351;50.812;12.872;2022-12-18T09:11:32;17.27;;;7.40;;
4674;SDS011;2351;50.812;12.872;2022-12-18T09:14:04;14.35;;;6.10;;
4674;SDS011;2351;50.812;12.872;2022-12-18T09:16:36;11.30;;;5.88;;
4674;SDS011;2351;50.812;12.872;2022-12-18T09:19:08;12.80;;;6.40;;
4674;SDS011;2351;50.812;12.872;2022-12-18T09:21:42;10.23;;;5.75;;
4674;SDS011;2351;50.812;12.872;2022-12-18T09:24:14;9.05;;;5.20;;
4674;SDS011;2351;50.812;12.872;2022-12-18T09:26:46;9.65;;;5.53;;
4674;SDS011;2351;50.812;12.872;2022-12-18T09:29:18;12.07;;;5.05;;
4674;SDS011;2351;50.812;12.872;2022-12-18T09:31:49;8.48;;;5.13;;
4674;SDS011;2351;50.812;12.872;2022-12-18T09:34:21;19.23;;;5.47;;
4674;SDS011;2351;50.812;12.872;2022-12-18T09:36:54;10.23;;;6.80;;
4674;SDS011;2351;50.812;12.872;2022-12-18T09:39:26;10.00;;;5.80;;
4674;SDS011;2351;50.812;12.872;2022-12-18T09:41:57;14.87;;;7.30;;
4674;SDS011;2351;50.812;12.872;2022-12-18T09:44:30;8.53;;;5.90;;
4674;SDS011;2351;50.812;12.872;2022-12-18T09:47:10;12.07;;;6.97;;
4674;SDS011;2351;50.812;12.872;2022-12-18T09:49:46;13.50;;;6.20;;
4674;SDS011;2351;50.812;12.872;2022-12-18T09:52:24;12.97;;;5.80;;
4674;SDS011;2351;50.812;12.872;2022-12-18T09:54:59;12.53;;;5.80;;
4674;SDS011;2351;50.812;12.872;2022-12-18T09:57:34;14.23;;;7.83;;
4674;SDS011;2351;50.812;12.872;2022-12-18T10:00:15;23.20;;;10.60;;
4674;SDS011;2351;50.812;12.872;2022-12-18T10:02:50;11.53;;;7.47;;
4674;SDS011;2351;50.812;12.872;2022-12-18T10:05:26;17.85;;;8.88;;
4674;SDS011;2351;50.812;12.872;2022-12-18T10:08:09;14.60;;;8.60;;
4674;SDS011;2351;50.812;12.872;2022-12-18T10:10:46;26.27;;;11.27;;
4674;SDS011;2351;50.812;12.872;2022-12-18T10:13:23;22.70;;;10.33;;
4674;SDS011;2351;50.812;12.872;2022-12-18T10:16:08;19.23;;;8.93;;
4674;SDS011;2351;50.812;12.872;2022-12-18T10:19:01;17.85;;;9.02;;
4674;SDS011;2351;50.812;12.872;2022-12-18T10:21:45;22.80;;;9.63;;
4674;SDS011;2351;50.812;12.872;2022-12-18T10:24:26;19.63;;;8.73;;
4674;SDS011;2351;50.812;12.872;2022-12-18T10:27:09;31.48;;;12.50;;
4674;SDS011;2351;50.812;12.872;2022-12-18T10:29:44;29.60;;;11.87;;
4674;SDS011;2351;50.812;12.872;2022-12-18T10:32:18;21.15;;;9.52;;
4674;SDS011;2351;50.812;12.872;2022-12-18T10:34:51;31.10;;;13.30;;
4674;SDS011;2351;50.812;12.872;2022-12-18T10:37:25;21.83;;;9.30;;
4674;SDS011;2351;50.812;12.872;2022-12-18T10:40:11;30.20;;;12.10;;
4674;SDS011;2351;50.812;12.872;2022-12-18T10:42:43;23.30;;;11.50;;
4674;SDS011;2351;50.812;12.872;2022-12-18T10:45:16;26.20;;;11.23;;
4674;SDS011;2351;50.812;12.872;2022-12-18T10:47:48;21.90;;;8.67;;
4674;SDS011;2351;50.812;12.872;2022-12-18T10:50:23;14.83;;;5.67;;
4674;SDS011;2351;50.812;12.872;2022-12-18T10:52:59;9.53;;;4.97;;
4674;SDS011;2351;50.812;12.872;2022-12-18T10:55:35;13.63;;;5.67;;
4674;SDS011;2351;50.812;12.872;2022-12-18T10:58:15;9.63;;;4.47;;
4674;SDS011;2351;50.812;12.872;2022-12-18T11:01:02;12.30;;;6.10;;
4674;SDS011;2351;50.812;12.872;2022-12-18T11:03:37;8.53;;;5.03;;
4674;SDS011;2351;50.812;12.872;2022-12-18T11:06:11;6.80;;;3.83;;
4674;SDS011;2351;50.812;12.872;2022-12-18T11:08:56;8.90;;;5.17;;
4674;SDS011;2351;50.812;12.872;2022-12-18T11:11:31;9.30;;;4.97;;
4674;SDS011;2351;50.812;12.872;2022-12-18T11:14:04;9.43;;;4.73;;
4674;SDS011;2351;50.812;12.872;2022-12-18T11:16:42;10.10;;;4.70;;
4674;SDS011;2351;50.812;12.872;2022-12-18T11:19:21;5.27;;;3.80;;
4674;SDS011;2351;50.812;12.872;2022-12-18T11:22:16;8.50;;;4.80;;
4674;SDS011;2351;50.812;12.872;2022-12-18T11:24:52;9.93;;;4.20;;
4674;SDS011;2351;50.812;12.872;2022-12-18T11:27:28;11.80;;;5.27;;
4674;SDS011;2351;50.812;12.872;2022-12-18T11:30:07;9.60;;;3.93;;
4674;SDS011;2351;50.812;12.872;2022-12-18T11:32:40;8.10;;;4.40;;
4674;SDS011;2351;50.812;12.872;2022-12-18T11:35:17;9.97;;;4.03;;
4674;SDS011;2351;50.812;12.872;2022-12-18T11:37:53;8.70;;;4.30;;
4674;SDS011;2351;50.812;12.872;2022-12-18T11:40:30;7.33;;;4.10;;
4674;SDS011;2351;50.812;12.872;2022-12-18T11:43:08;9.17;;;3.67;;
4674;SDS011;2351;50.812;12.872;2022-12-18T11:45:46;12.10;;;6.13;;
4674;SDS011;2351;50.812;12.872;2022-12-18T11:48:24;6.90;;;4.30;;
4674;SDS011;2351;50.812;12.872;2022-12-18T11:51:02;6.53;;;3.97;;
4674;SDS011;2351;50.812;12.872;2022-12-18T11:53:40;6.47;;;3.77;;
4674;SDS011;2351;50.812;12.872;2022-12-18T11:56:18;8.70;;;4.20;;
4674;SDS011;2351;50.812;12.872;2022-12-18T11:59:04;12.93;;;4.83;;
4674;SDS011;2351;50.812;12.872;2022-12-18T12:01:46;6.07;;;3.13;;
4674;SDS011;2351;50.812;12.872;2022-12-18T12:04:27;6.13;;;3.20;;
4674;SDS011;2351;50.812;12.872;2022-12-18T12:07:23;7.33;;;4.03;;
4674;SDS011;2351;50.812;12.872;2022-12-18T12:10:05;7.77;;;4.03;;
4674;SDS011;2351;50.812;12.872;2022-12-18T12:12:52;9.03;;;3.50;;
4674;SDS011;2351;50.812;12.872;2022-12-18T12:15:42;10.80;;;3.57;;
4674;SDS011;2351;50.812;12.872;2022-12-18T12:18:28;7.53;;;4.00;;
4674;SDS011;2351;50.812;12.872;2022-12-18T12:21:08;7.70;;;3.73;;
4674;SDS011;2351;50.812;12.872;2022-12-18T12:23:50;8.93;;;4.63;;
4674;SDS011;2351;50.812;12.872;2022-12-18T12:26:30;5.53;;;3.67;;
4674;SDS011;2351;50.812;12.872;2022-12-18T12:29:12;8.93;;;4.13;;
4674;SDS011;2351;50.812;12.872;2022-12-18T12:32:00;4.77;;;3.23;;
4674;SDS011;2351;50.812;12.872;2022-12-18T12:34:45;5.27;;;3.70;;
4674;SDS011;2351;50.812;12.872;2022-12-18T12:37:29;8.03;;;4.40;;
4674;SDS011;2351;50.812;12.872;2022-12-18T12:40:10;6.50;;;3.27;;
4674;SDS011;2351;50.812;12.872;2022-12-18T12:42:46;9.00;;;3.33;;
4674;SDS011;2351;50.812;12.872;2022-12-18T12:45:41;4.20;;;3.37;;
4674;SDS011;2351;50.812;12.872;2022-12-18T12:48:21;3.47;;;2.67;;
4674;SDS011;2351;50.812;12.872;2022-12-18T12:51:03;6.20;;;3.47;;
4674;SDS011;2351;50.812;12.872;2022-12-18T12:53:42;7.07;;;2.90;;
4674;SDS011;2351;50.812;12.872;2022-12-18T12:56:14;6.10;;;3.30;;
4674;SDS011;2351;50.812;12.872;2022-12-18T12:58:51;4.70;;;2.97;;
4674;SDS011;2351;50.812;12.872;2022-12-18T13:01:32;7.17;;;3.50;;
4674;SDS011;2351;50.812;12.872;2022-12-18T13:04:12;8.90;;;4.40;;
4674;SDS011;2351;50.812;12.872;2022-12-18T13:06:53;14.00;;;6.10;;
4674;SDS011;2351;50.812;12.872;2022-12-18T13:09:31;7.13;;;3.83;;
4674;SDS011;2351;50.812;12.872;2022-12-18T13:12:03;7.10;;;3.60;;
4674;SDS011;2351;50.812;12.872;2022-12-18T13:15:11;9.23;;;3.53;;
4674;SDS011;2351;50.812;12.872;2022-12-18T13:17:45;7.03;;;3.50;;
4674;SDS011;2351;50.812;12.872;2022-12-18T13:20:18;7.00;;;3.30;;
4674;SDS011;2351;50.812;12.872;2022-12-18T13:22:56;7.90;;;3.43;;
4674;SDS011;2351;50.812;12.872;2022-12-18T13:25:35;6.07;;;3.00;;
4674;SDS011;2351;50.812;12.872;2022-12-18T13:28:09;6.50;;;3.23;;
4674;SDS011;2351;50.812;12.872;2022-12-18T13:30:43;5.20;;;3.40;;
4674;SDS011;2351;50.812;12.872;2022-12-18T13:36:30;11.20;;;4.13;;
4674;SDS011;2351;50.812;12.872;2022-12-18T13:39:09;9.30;;;3.93;;
4674;SDS011;2351;50.812;12.872;2022-12-18T13:45:44;9.70;;;4.40;;
4674;SDS011;2351;50.812;12.872;2022-12-18T13:48:23;4.90;;;2.90;;
4674;SDS011;2351;50.812;12.872;2022-12-18T13:50:59;4.40;;;3.23;;
4674;SDS011;2351;50.812;12.872;2022-12-18T13:53:35;6.17;;;3.43;;
4674;SDS011;2351;50.812;12.872;2022-12-18T13:56:15;4.93;;;2.83;;
4674;SDS011;2351;50.812;12.872;2022-12-18T13:59:11;13.57;;;4.30;;
4674;SDS011;2351;50.812;12.872;2022-12-18T14:01:55;5.27;;;3.20;;
4674;SDS011;2351;50.812;12.872;2022-12-18T14:04:29;7.97;;;3.50;;
4674;SDS011;2351;50.812;12.872;2022-12-18T14:07:02;5.77;;;3.60;;
4674;SDS011;2351;50.812;12.872;2022-12-18T14:09:40;6.43;;;3.87;;
4674;SDS011;2351;50.812;12.872;2022-12-18T14:12:15;6.87;;;2.77;;
4674;SDS011;2351;50.812;12.872;2022-12-18T14:15:10;7.03;;;3.90;;
4674;SDS011;2351;50.812;12.872;2022-12-18T14:17:54;6.23;;;2.53;;
4674;SDS011;2351;50.812;12.872;2022-12-18T14:20:29;6.32;;;2.95;;
4674;SDS011;2351;50.812;12.872;2022-12-18T14:23:03;8.15;;;3.20;;
4674;SDS011;2351;50.812;12.872;2022-12-18T14:25:36;6.20;;;2.93;;
4674;SDS011;2351;50.812;12.872;2022-12-18T14:28:15;5.10;;;3.57;;
4674;SDS011;2351;50.812;12.872;2022-12-18T14:30:47;6.93;;;3.47;;
4674;SDS011;2351;50.812;12.872;2022-12-18T14:33:19;5.57;;;3.60;;
4674;SDS011;2351;50.812;12.872;2022-12-18T14:35:54;3.67;;;2.95;;
4674;SDS011;2351;50.812;12.872;2022-12-18T14:38:28;8.43;;;3.80;;
4674;SDS011;2351;50.812;12.872;2022-12-18T14:41:03;4.97;;;3.03;;
4674;SDS011;2351;50.812;12.872;2022-12-18T14:43:37;19.20;;;6.47;;
4674;SDS011;2351;50.812;12.872;2022-12-18T14:46:25;18.30;;;7.83;;
4674;SDS011;2351;50.812;12.872;2022-12-18T14:48:59;22.35;;;7.53;;
4674;SDS011;2351;50.812;12.872;2022-12-18T14:51:33;15.57;;;5.63;;
4674;SDS011;2351;50.812;12.872;2022-12-18T14:54:05;12.18;;;5.05;;
4674;SDS011;2351;50.812;12.872;2022-12-18T14:56:48;7.63;;;4.10;;
4674;SDS011;2351;50.812;12.872;2022-12-18T14:59:22;6.35;;;3.13;;
4674;SDS011;2351;50.812;12.872;2022-12-18T15:02:00;9.48;;;4.15;;
4674;SDS011;2351;50.812;12.872;2022-12-18T15:04:36;13.00;;;2.90;;
4674;SDS011;2351;50.812;12.872;2022-12-18T15:07:11;6.72;;;2.97;;
4674;SDS011;2351;50.812;12.872;2022-12-18T15:10:00;5.95;;;2.10;;
4674;SDS011;2351;50.812;12.872;2022-12-18T15:12:37;4.93;;;3.60;;
4674;SDS011;2351;50.812;12.872;2022-12-18T15:18:17;9.40;;;3.45;;
4674;SDS011;2351;50.812;12.872;2022-12-18T15:20:51;14.52;;;6.13;;
4674;SDS011;2351;50.812;12.872;2022-12-18T15:23:25;13.25;;;6.28;;
4674;SDS011;2351;50.812;12.872;2022-12-18T15:26:02;14.90;;;7.22;;
4674;SDS011;2351;50.812;12.872;2022-12-18T15:28:37;8.18;;;3.97;;
4674;SDS011;2351;50.812;12.872;2022-12-18T15:31:24;6.40;;;2.88;;
4674;SDS011;2351;50.812;12.872;2022-12-18T15:34:01;8.85;;;4.50;;
4674;SDS011;2351;50.812;12.872;2022-12-18T15:36:41;6.80;;;3.90;;
4674;SDS011;2351;50.812;12.872;2022-12-18T15:39:12;8.05;;;3.70;;
4674;SDS011;2351;50.812;12.872;2022-12-18T15:41:44;5.95;;;3.83;;
4674;SDS011;2351;50.812;12.872;2022-12-18T15:44:31;10.25;;;3.75;;
4674;SDS011;2351;50.812;12.872;2022-12-18T15:47:07;5.97;;;3.55;;
4674;SDS011;2351;50.812;12.872;2022-12-18T15:49:41;9.82;;;4.03;;
4674;SDS011;2351;50.812;12.872;2022-12-18T15:52:13;7.40;;;4.10;;
4674;SDS011;2351;50.812;12.872;2022-12-18T15:54:55;13.25;;;4.57;;
4674;SDS011;2351;50.812;12.872;2022-12-18T15:57:45;10.25;;;4.15;;
4674;SDS011;2351;50.812;12.872;2022-12-18T16:00:18;6.43;;;3.30;;